APL Denmark — A8JX9 — position and weather

sailwx.info

Track history (hours):
 
Tides and Currents Weather Stations Pressure Air Temp Water Temp Dewpoint Dewpoint Depression Visibility Wind Speed Wind Dir Waves Ship Positions

APL Denmark

Last reported at 2017-Aug-06 19:06 UTC. Time now 2017-Aug-20 13:23 UTC.
Position N 01°26' E 103°13'.
Warning: this ship's position is 13 days out of date.

Length 277 m; beam 40 m; draft 14 m.

Type: Ship. MMSI: 636091157.

Date/timePositionNaut miles runAvg speedWind from/ knotsBaromVisibWave heightAir tempDewpointWater temp
2017-Aug-06 19:06N 01°26' E 103°13'720.5
2017-Aug-06 18:45N 01°21' E 103°18'520.5
2017-Aug-06 18:30N 01°17' E 103°22'1019.2
2017-Aug-06 17:58N 01°13' E 103°31'716.2
2017-Aug-06 17:30N 01°12' E 103°38'611.3
2017-Aug-06 17:00N 01°15' E 103°43'4 7.3
2017-Aug-06 16:31N 01°16' E 103°46'0 0.3
2017-Aug-06 15:55N 01°16' E 103°46'0 0.0
2017-Aug-06 15:28N 01°16' E 103°46'0 0.0
2017-Aug-06 14:58N 01°16' E 103°46'0 0.0
2017-Aug-06 14:28N 01°16' E 103°46'0 0.0
2017-Aug-06 13:52N 01°16' E 103°46'0 0.0
2017-Aug-06 13:28N 01°16' E 103°46'0 0.0
2017-Aug-06 12:58N 01°16' E 103°46'0 0.0
2017-Aug-06 12:28N 01°16' E 103°46'0 0.0
2017-Aug-06 11:55N 01°16' E 103°46'0 0.0
2017-Aug-06 11:28N 01°16' E 103°46'0 0.0
2017-Aug-06 10:58N 01°16' E 103°46'0 0.0
2017-Aug-06 10:25N 01°16' E 103°46'0 0.0
2017-Aug-06 09:58N 01°16' E 103°46'0 0.0
2017-Aug-06 09:28N 01°16' E 103°46'0 0.0
2017-Aug-06 08:58N 01°16' E 103°46'0 0.0
2017-Aug-06 08:28N 01°16' E 103°46'0 0.0
2017-Aug-06 07:55N 01°16' E 103°46'0 0.0
2017-Aug-06 07:28N 01°16' E 103°46'0 0.0
2017-Aug-06 06:58N 01°16' E 103°46'0 0.0
2017-Aug-06 06:28N 01°16' E 103°46'0 0.0
2017-Aug-06 05:58N 01°16' E 103°46'0 0.0
2017-Aug-06 05:28N 01°16' E 103°46'0 0.0
2017-Aug-06 04:58N 01°16' E 103°46'0 0.0
2017-Aug-06 04:30N 01°16' E 103°46'1 1.9
2017-Aug-06 04:00N 01°15' E 103°47'5 9.7
2017-Aug-06 03:30N 01°12' E 103°50'4 7.0
2017-Aug-06 03:00N 01°16' E 103°50'0 0.6
2017-Aug-06 02:29N 01°16' E 103°50'0 0.0
2017-Aug-06 01:59N 01°16' E 103°50'0 0.0
2017-Aug-06 01:29N 01°16' E 103°50'0 0.0
2017-Aug-06 00:59N 01°16' E 103°50'0 0.0
2017-Aug-06 00:29N 01°16' E 103°50'0 0.0
2017-Aug-05 23:59N 01°16' E 103°50'0 0.0
2017-Aug-05 23:26N 01°16' E 103°50'0 0.0
2017-Aug-05 22:59N 01°16' E 103°50'0 0.0
2017-Aug-05 22:29N 01°16' E 103°50'0 0.0
2017-Aug-05 21:59N 01°16' E 103°50'0 0.0
2017-Aug-05 21:29N 01°16' E 103°50'0 0.0
2017-Aug-05 20:56N 01°16' E 103°50'0 0.0
2017-Aug-05 20:29N 01°16' E 103°50'0 0.0
2017-Aug-05 19:59N 01°16' E 103°50'0 0.0
2017-Aug-05 19:29N 01°16' E 103°50'0 0.0
2017-Aug-05 18:56N 01°16' E 103°50'0 0.0
2017-Aug-05 18:29N 01°16' E 103°50'0 0.0
2017-Aug-05 17:59N 01°16' E 103°50'0 0.0
2017-Aug-05 17:29N 01°16' E 103°50'0 0.0
2017-Aug-05 16:59N 01°16' E 103°50'0 0.0
2017-Aug-05 16:29N 01°16' E 103°50'0 0.0
2017-Aug-05 15:56N 01°16' E 103°50'0 0.0
2017-Aug-05 15:29N 01°16' E 103°50'0 0.0
2017-Aug-05 14:59N 01°16' E 103°50'0 0.0
2017-Aug-05 14:29N 01°16' E 103°50'0 0.0
2017-Aug-05 13:59N 01°16' E 103°50'0 0.0
2017-Aug-05 13:29N 01°16' E 103°50'0 0.0
2017-Aug-05 12:59N 01°16' E 103°50'0 0.0
2017-Aug-05 12:29N 01°16' E 103°50'1 1.1
2017-Aug-05 12:00N 01°16' E 103°51'3 5.8
2017-Aug-05 11:31N 01°14' E 103°53'3 6.1
2017-Aug-05 11:00N 01°15' E 103°56'2 3.7
2017-Aug-05 10:27N 01°17' E 103°55'0 0.1
2017-Aug-05 09:51N 01°17' E 103°55'0 0.0
2017-Aug-05 09:18N 01°17' E 103°55'0 0.0
2017-Aug-05 08:57N 01°17' E 103°55'0 0.0
2017-Aug-05 08:27N 01°17' E 103°55'0 0.0
2017-Aug-05 07:57N 01°17' E 103°55'0 0.0
2017-Aug-05 06:36N 01°17' E 103°55'0 0.0
2017-Aug-05 05:48N 01°17' E 103°55'0 0.0
2017-Aug-05 05:21N 01°17' E 103°55'0 0.0
2017-Aug-05 04:54N 01°17' E 103°55'0 0.0
2017-Aug-05 02:48N 01°17' E 103°55'0 0.0
2017-Aug-05 02:27N 01°17' E 103°55'0 0.0
2017-Aug-05 01:12N 01°17' E 103°55'0 0.0
2017-Aug-05 00:39N 01°17' E 103°55'0 0.0
2017-Aug-05 00:24N 01°17' E 103°55'0 0.0
2017-Aug-04 23:57N 01°17' E 103°55'0 0.0
2017-Aug-04 23:21N 01°17' E 103°55'0 0.0
2017-Aug-04 21:42N 01°17' E 103°55'0 0.0
2017-Aug-04 21:27N 01°17' E 103°55'0 0.0
2017-Aug-04 20:48N 01°17' E 103°55'0 0.1
2017-Aug-04 19:39N 01°17' E 103°55'0 0.0
2017-Aug-04 18:27N 01°17' E 103°55'0 0.0
2017-Aug-04 17:57N 01°17' E 103°55'0 0.0
2017-Aug-04 17:18N 01°17' E 103°55'0 0.0
2017-Aug-04 16:48N 01°17' E 103°55'0 0.0
2017-Aug-04 13:48N 01°17' E 103°55'0 0.0
2017-Aug-04 13:24N 01°17' E 103°55'0 0.0
2017-Aug-04 11:42N 01°17' E 103°55'0 0.0
2017-Aug-04 09:45N 01°17' E 103°55'0 0.0
2017-Aug-04 09:30N 01°17' E 103°55'0 0.0
2017-Aug-04 07:51N 01°17' E 103°55'0 0.0
2017-Aug-04 07:30N 01°17' E 103°55'0 0.0
2017-Aug-04 06:51N 01°17' E 103°55'0 0.0
2017-Aug-04 06:30N 01°17' E 103°55'0 0.1
2017-Aug-04 05:24N 01°17' E 103°55'0 0.1
2017-Aug-04 04:57N 01°17' E 103°55'0 0.0
2017-Aug-04 03:48N 01°17' E 103°55'0 0.1
2017-Aug-04 03:24N 01°17' E 103°55'0 0.1
2017-Aug-04 02:51N 01°17' E 103°55'0 0.1
2017-Aug-04 02:30N 01°17' E 103°55'0 0.0
2017-Aug-04 02:00N 01°17' E 103°55'0 0.0
2017-Aug-04 01:30N 01°17' E 103°55'0 0.0
2017-Aug-04 01:00N 01°17' E 103°55'0 0.0
2017-Aug-04 00:21N 01°17' E 103°55'0 0.0
2017-Aug-04 00:00N 01°17' E 103°55'0 0.0
2017-Aug-03 23:30N 01°17' E 103°55'0 0.0
2017-Aug-03 22:57N 01°17' E 103°55'0 0.0
2017-Aug-03 21:51N 01°17' E 103°55'0 0.1
2017-Aug-03 21:27N 01°17' E 103°55'0 0.0
2017-Aug-03 19:51N 01°17' E 103°55'0 0.0
2017-Aug-03 19:30N 01°17' E 103°55'0 0.0
2017-Aug-03 18:57N 01°17' E 103°55'0 0.0
2017-Aug-03 17:39N 01°17' E 103°55'0 0.0
2017-Aug-03 17:30N 01°17' E 103°55'0 0.1
2017-Aug-03 17:00N 01°17' E 103°55'1 2.4
2017-Aug-03 16:23N 01°16' E 103°54'2 4.7
2017-Aug-03 16:00N 01°14' E 103°55'3 6.6
2017-Aug-03 15:30N 01°15' E 103°58'5 8.6
2017-Aug-03 14:58N 01°16' E 104°02'1811.0
2017-Aug-03 13:19N 01°19' E 104°20'410.6
2017-Aug-03 12:58N 01°22' E 104°23'  
Track history (hours):
 
Tides and Currents Weather Stations Pressure Air Temp Water Temp Dewpoint Dewpoint Depression Visibility Wind Speed Wind Dir Waves Ship Positions

APL Denmark

Last reported at 2017-Aug-06 19:06 UTC. Time now 2017-Aug-20 13:23 UTC.
Position N 01°26' E 103°13'.
Warning: this ship's position is 13 days out of date.

Length 277 m; beam 40 m; draft 14 m.

Type: Ship. MMSI: 636091157.

Date/timePositionNaut miles runAvg speedWind from/ knotsBaromVisibWave heightAir tempDewpointWater temp
2017-Aug-06 19:06N 01°26' E 103°13'720.5
2017-Aug-06 18:45N 01°21' E 103°18'520.5
2017-Aug-06 18:30N 01°17' E 103°22'1019.2
2017-Aug-06 17:58N 01°13' E 103°31'716.2
2017-Aug-06 17:30N 01°12' E 103°38'611.3
2017-Aug-06 17:00N 01°15' E 103°43'4 7.3
2017-Aug-06 16:31N 01°16' E 103°46'0 0.3
2017-Aug-06 15:55N 01°16' E 103°46'0 0.0
2017-Aug-06 15:28N 01°16' E 103°46'0 0.0
2017-Aug-06 14:58N 01°16' E 103°46'0 0.0
2017-Aug-06 14:28N 01°16' E 103°46'0 0.0
2017-Aug-06 13:52N 01°16' E 103°46'0 0.0
2017-Aug-06 13:28N 01°16' E 103°46'0 0.0
2017-Aug-06 12:58N 01°16' E 103°46'0 0.0
2017-Aug-06 12:28N 01°16' E 103°46'0 0.0
2017-Aug-06 11:55N 01°16' E 103°46'0 0.0
2017-Aug-06 11:28N 01°16' E 103°46'0 0.0
2017-Aug-06 10:58N 01°16' E 103°46'0 0.0
2017-Aug-06 10:25N 01°16' E 103°46'0 0.0
2017-Aug-06 09:58N 01°16' E 103°46'0 0.0
2017-Aug-06 09:28N 01°16' E 103°46'0 0.0
2017-Aug-06 08:58N 01°16' E 103°46'0 0.0
2017-Aug-06 08:28N 01°16' E 103°46'0 0.0
2017-Aug-06 07:55N 01°16' E 103°46'0 0.0
2017-Aug-06 07:28N 01°16' E 103°46'0 0.0
2017-Aug-06 06:58N 01°16' E 103°46'0 0.0
2017-Aug-06 06:28N 01°16' E 103°46'0 0.0
2017-Aug-06 05:58N 01°16' E 103°46'0 0.0
2017-Aug-06 05:28N 01°16' E 103°46'0 0.0
2017-Aug-06 04:58N 01°16' E 103°46'0 0.0
2017-Aug-06 04:30N 01°16' E 103°46'1 1.9
2017-Aug-06 04:00N 01°15' E 103°47'5 9.7
2017-Aug-06 03:30N 01°12' E 103°50'4 7.0
2017-Aug-06 03:00N 01°16' E 103°50'0 0.6
2017-Aug-06 02:29N 01°16' E 103°50'0 0.0
2017-Aug-06 01:59N 01°16' E 103°50'0 0.0
2017-Aug-06 01:29N 01°16' E 103°50'0 0.0
2017-Aug-06 00:59N 01°16' E 103°50'0 0.0
2017-Aug-06 00:29N 01°16' E 103°50'0 0.0
2017-Aug-05 23:59N 01°16' E 103°50'0 0.0
2017-Aug-05 23:26N 01°16' E 103°50'0 0.0
2017-Aug-05 22:59N 01°16' E 103°50'0 0.0
2017-Aug-05 22:29N 01°16' E 103°50'0 0.0
2017-Aug-05 21:59N 01°16' E 103°50'0 0.0
2017-Aug-05 21:29N 01°16' E 103°50'0 0.0
2017-Aug-05 20:56N 01°16' E 103°50'0 0.0
2017-Aug-05 20:29N 01°16' E 103°50'0 0.0
2017-Aug-05 19:59N 01°16' E 103°50'0 0.0
2017-Aug-05 19:29N 01°16' E 103°50'0 0.0
2017-Aug-05 18:56N 01°16' E 103°50'0 0.0
2017-Aug-05 18:29N 01°16' E 103°50'0 0.0
2017-Aug-05 17:59N 01°16' E 103°50'0 0.0
2017-Aug-05 17:29N 01°16' E 103°50'0 0.0
2017-Aug-05 16:59N 01°16' E 103°50'0 0.0
2017-Aug-05 16:29N 01°16' E 103°50'0 0.0
2017-Aug-05 15:56N 01°16' E 103°50'0 0.0
2017-Aug-05 15:29N 01°16' E 103°50'0 0.0
2017-Aug-05 14:59N 01°16' E 103°50'0 0.0
2017-Aug-05 14:29N 01°16' E 103°50'0 0.0
2017-Aug-05 13:59N 01°16' E 103°50'0 0.0
2017-Aug-05 13:29N 01°16' E 103°50'0 0.0
2017-Aug-05 12:59N 01°16' E 103°50'0 0.0
2017-Aug-05 12:29N 01°16' E 103°50'1 1.1
2017-Aug-05 12:00N 01°16' E 103°51'3 5.8
2017-Aug-05 11:31N 01°14' E 103°53'3 6.1
2017-Aug-05 11:00N 01°15' E 103°56'2 3.7
2017-Aug-05 10:27N 01°17' E 103°55'0 0.1
2017-Aug-05 09:51N 01°17' E 103°55'0 0.0
2017-Aug-05 09:18N 01°17' E 103°55'0 0.0
2017-Aug-05 08:57N 01°17' E 103°55'0 0.0
2017-Aug-05 08:27N 01°17' E 103°55'0 0.0
2017-Aug-05 07:57N 01°17' E 103°55'0 0.0
2017-Aug-05 06:36N 01°17' E 103°55'0 0.0
2017-Aug-05 05:48N 01°17' E 103°55'0 0.0
2017-Aug-05 05:21N 01°17' E 103°55'0 0.0
2017-Aug-05 04:54N 01°17' E 103°55'0 0.0
2017-Aug-05 02:48N 01°17' E 103°55'0 0.0
2017-Aug-05 02:27N 01°17' E 103°55'0 0.0
2017-Aug-05 01:12N 01°17' E 103°55'0 0.0
2017-Aug-05 00:39N 01°17' E 103°55'0 0.0
2017-Aug-05 00:24N 01°17' E 103°55'0 0.0
2017-Aug-04 23:57N 01°17' E 103°55'0 0.0
2017-Aug-04 23:21N 01°17' E 103°55'0 0.0
2017-Aug-04 21:42N 01°17' E 103°55'0 0.0
2017-Aug-04 21:27N 01°17' E 103°55'0 0.0
2017-Aug-04 20:48N 01°17' E 103°55'0 0.1
2017-Aug-04 19:39N 01°17' E 103°55'0 0.0
2017-Aug-04 18:27N 01°17' E 103°55'0 0.0
2017-Aug-04 17:57N 01°17' E 103°55'0 0.0
2017-Aug-04 17:18N 01°17' E 103°55'0 0.0
2017-Aug-04 16:48N 01°17' E 103°55'0 0.0
2017-Aug-04 13:48N 01°17' E 103°55'0 0.0
2017-Aug-04 13:24N 01°17' E 103°55'0 0.0
2017-Aug-04 11:42N 01°17' E 103°55'0 0.0
2017-Aug-04 09:45N 01°17' E 103°55'0 0.0
2017-Aug-04 09:30N 01°17' E 103°55'0 0.0
2017-Aug-04 07:51N 01°17' E 103°55'0 0.0
2017-Aug-04 07:30N 01°17' E 103°55'0 0.0
2017-Aug-04 06:51N 01°17' E 103°55'0 0.0
2017-Aug-04 06:30N 01°17' E 103°55'0 0.1
2017-Aug-04 05:24N 01°17' E 103°55'0 0.1
2017-Aug-04 04:57N 01°17' E 103°55'0 0.0
2017-Aug-04 03:48N 01°17' E 103°55'0 0.1
2017-Aug-04 03:24N 01°17' E 103°55'0 0.1
2017-Aug-04 02:51N 01°17' E 103°55'0 0.1
2017-Aug-04 02:30N 01°17' E 103°55'0 0.0
2017-Aug-04 02:00N 01°17' E 103°55'0 0.0
2017-Aug-04 01:30N 01°17' E 103°55'0 0.0
2017-Aug-04 01:00N 01°17' E 103°55'0 0.0
2017-Aug-04 00:21N 01°17' E 103°55'0 0.0
2017-Aug-04 00:00N 01°17' E 103°55'0 0.0
2017-Aug-03 23:30N 01°17' E 103°55'0 0.0
2017-Aug-03 22:57N 01°17' E 103°55'0 0.0
2017-Aug-03 21:51N 01°17' E 103°55'0 0.1
2017-Aug-03 21:27N 01°17' E 103°55'0 0.0
2017-Aug-03 19:51N 01°17' E 103°55'0 0.0
2017-Aug-03 19:30N 01°17' E 103°55'0 0.0
2017-Aug-03 18:57N 01°17' E 103°55'0 0.0
2017-Aug-03 17:39N 01°17' E 103°55'0 0.0
2017-Aug-03 17:30N 01°17' E 103°55'0 0.1
2017-Aug-03 17:00N 01°17' E 103°55'1 2.4
2017-Aug-03 16:23N 01°16' E 103°54'2 4.7
2017-Aug-03 16:00N 01°14' E 103°55'3 6.6
2017-Aug-03 15:30N 01°15' E 103°58'5 8.6
2017-Aug-03 14:58N 01°16' E 104°02'1811.0
2017-Aug-03 13:19N 01°19' E 104°20'410.6
2017-Aug-03 12:58N 01°22' E 104°23'  

Dump ship's entire track history